Time,TemperatureF,DewpointF,PressureIn,WindDirection,WindDirectionDegrees,WindSpeedMPH,WindSpeedGustMPH,Humidity,HourlyPrecipIn,Conditions,Clouds,dailyrainin,SolarRadiationWatts/m^2,SoftwareType,DateUTC
2014-12-18 00:01:00,40.0,39.0,-100.00,SE,128,15.0,23.0,97,0.06,,,0.89,0.000000,,2014-12-18 08:01:00,
2014-12-18 00:22:00,40.0,39.0,-100.00,SE,128,15.0,23.0,97,0.06,,,0.89,0.000000,,2014-12-18 08:22:00,
2014-12-18 00:32:00,40.0,39.0,-100.00,SE,128,15.0,23.0,97,0.06,,,0.89,0.000000,,2014-12-18 08:32:00,
2014-12-18 00:42:00,40.0,39.0,-100.00,SE,128,15.0,23.0,97,0.06,,,0.89,0.000000,,2014-12-18 08:42:00,
2014-12-18 00:52:00,40.0,39.0,-100.00,SE,128,15.0,23.0,97,0.06,,,0.89,0.000000,,2014-12-18 08:52:00,
2014-12-18 01:01:00,41.0,40.0,-100.00,SE,126,17.0,23.0,97,0.03,,,0.87,0.000000,,2014-12-18 09:01:00,
2014-12-18 01:22:00,41.0,40.0,-100.00,SE,126,17.0,23.0,97,0.03,,,0.87,0.000000,,2014-12-18 09:22:00,
2014-12-18 01:34:00,41.0,40.0,-100.00,SE,126,17.0,23.0,97,0.03,,,0.87,0.000000,,2014-12-18 09:34:00,
2014-12-18 01:44:00,41.0,40.0,-100.00,SE,126,17.0,23.0,97,0.03,,,0.87,0.000000,,2014-12-18 09:44:00,
2014-12-18 01:53:00,41.0,40.0,-100.00,SE,126,17.0,23.0,97,0.03,,,0.87,0.000000,,2014-12-18 09:53:00,
2014-12-18 02:01:00,41.0,40.0,-100.00,SE,132,15.0,25.0,96,0.01,,,0.79,0.000000,,2014-12-18 10:01:00,
2014-12-18 02:23:00,41.0,40.0,-100.00,SE,132,15.0,25.0,96,0.01,,,0.79,0.000000,,2014-12-18 10:23:00,
2014-12-18 02:33:00,41.0,40.0,-100.00,SE,132,15.0,25.0,96,0.01,,,0.79,0.000000,,2014-12-18 10:33:00,
2014-12-18 02:43:00,41.0,40.0,-100.00,SE,132,15.0,25.0,96,0.01,,,0.79,0.000000,,2014-12-18 10:43:00,
2014-12-18 02:53:00,41.0,40.0,-100.00,SE,132,15.0,25.0,96,0.01,,,0.79,0.000000,,2014-12-18 10:53:00,
2014-12-18 03:01:00,41.0,39.0,-100.00,SE,134,12.0,20.0,94,0.00,,,0.70,0.000000,,2014-12-18 11:01:00,
2014-12-18 03:22:00,41.0,39.0,-100.00,SE,134,12.0,20.0,94,0.00,,,0.70,0.000000,,2014-12-18 11:22:00,
2014-12-18 03:32:00,41.0,39.0,-100.00,SE,134,12.0,20.0,94,0.00,,,0.70,0.000000,,2014-12-18 11:32:00,
2014-12-18 03:42:00,41.0,39.0,-100.00,SE,134,12.0,20.0,94,0.00,,,0.70,0.000000,,2014-12-18 11:42:00,
2014-12-18 03:52:00,41.0,39.0,-100.00,SE,134,12.0,20.0,94,0.00,,,0.70,0.000000,,2014-12-18 11:52:00,
2014-12-18 04:01:00,41.0,39.0,-100.00,SE,137,11.0,19.0,93,0.00,,,0.58,0.000000,,2014-12-18 12:01:00,
2014-12-18 04:22:00,41.0,39.0,-100.00,SE,137,11.0,19.0,93,0.00,,,0.58,0.000000,,2014-12-18 12:22:00,
2014-12-18 04:32:00,41.0,39.0,-100.00,SE,137,11.0,19.0,93,0.00,,,0.58,0.000000,,2014-12-18 12:32:00,
2014-12-18 04:42:00,41.0,39.0,-100.00,SE,137,11.0,19.0,93,0.00,,,0.58,0.000000,,2014-12-18 12:42:00,
2014-12-18 04:52:00,41.0,39.0,-100.00,SE,137,11.0,19.0,93,0.00,,,0.58,0.000000,,2014-12-18 12:52:00,
2014-12-18 05:01:00,42.0,39.0,-100.00,SE,130,17.0,25.0,90,0.00,,,0.55,0.000000,,2014-12-18 13:01:00,
2014-12-18 05:22:00,42.0,39.0,-100.00,SE,130,17.0,25.0,90,0.00,,,0.55,0.000000,,2014-12-18 13:22:00,
2014-12-18 05:32:00,42.0,39.0,-100.00,SE,130,17.0,25.0,90,0.00,,,0.55,0.000000,,2014-12-18 13:32:00,
2014-12-18 05:42:00,42.0,39.0,-100.00,SE,130,17.0,25.0,90,0.00,,,0.55,0.000000,,2014-12-18 13:42:00,
2014-12-18 05:52:00,42.0,39.0,-100.00,SE,130,17.0,25.0,90,0.00,,,0.55,0.000000,,2014-12-18 13:52:00,
2014-12-18 06:01:00,42.0,38.0,-100.00,SE,131,17.0,24.0,86,0.00,,,0.49,0.000000,,2014-12-18 14:01:00,
2014-12-18 06:22:00,42.0,38.0,-100.00,SE,131,17.0,24.0,86,0.00,,,0.49,0.000000,,2014-12-18 14:22:00,
2014-12-18 06:32:00,42.0,38.0,-100.00,SE,131,17.0,24.0,86,0.00,,,0.49,0.000000,,2014-12-18 14:32:00,
2014-12-18 06:42:00,42.0,38.0,-100.00,SE,131,17.0,24.0,86,0.00,,,0.49,0.000000,,2014-12-18 14:42:00,
2014-12-18 06:52:00,42.0,38.0,-100.00,SE,131,17.0,24.0,86,0.00,,,0.49,0.000000,,2014-12-18 14:52:00,
2014-12-18 07:01:00,42.0,38.0,-100.00,SE,133,11.0,26.0,85,0.00,,,0.45,0.000000,,2014-12-18 15:01:00,
2014-12-18 07:22:00,42.0,38.0,-100.00,SE,133,11.0,26.0,85,0.00,,,0.45,0.000000,,2014-12-18 15:22:00,
2014-12-18 07:34:00,42.0,38.0,-100.00,SE,133,11.0,26.0,85,0.00,,,0.45,0.000000,,2014-12-18 15:34:00,
2014-12-18 07:44:00,42.0,38.0,-100.00,SE,133,11.0,26.0,85,0.00,,,0.45,0.000000,,2014-12-18 15:44:00,
2014-12-18 07:54:00,42.0,38.0,-100.00,SE,133,11.0,26.0,85,0.00,,,0.45,0.000000,,2014-12-18 15:54:00,
2014-12-18 08:01:00,42.0,38.0,-100.00,SE,139,13.0,18.0,87,0.00,,,0.36,2.000000,,2014-12-18 16:01:00,
2014-12-18 08:23:00,42.0,38.0,-100.00,SE,139,13.0,18.0,87,0.00,,,0.36,2.000000,,2014-12-18 16:23:00,
2014-12-18 08:33:00,42.0,38.0,-100.00,SE,139,13.0,18.0,87,0.00,,,0.36,2.000000,,2014-12-18 16:33:00,
2014-12-18 08:43:00,42.0,38.0,-100.00,SE,139,13.0,18.0,87,0.00,,,0.36,2.000000,,2014-12-18 16:43:00,
2014-12-18 08:53:00,42.0,38.0,-100.00,SE,139,13.0,18.0,87,0.00,,,0.36,2.000000,,2014-12-18 16:53:00,
2014-12-18 09:01:00,43.0,38.0,-100.00,SE,132,15.0,22.0,83,0.00,,,0.34,55.000000,,2014-12-18 17:01:00,
2014-12-18 09:22:00,43.0,38.0,-100.00,SE,132,15.0,22.0,83,0.00,,,0.34,55.000000,,2014-12-18 17:22:00,
2014-12-18 09:33:00,43.0,38.0,-100.00,SE,132,15.0,22.0,83,0.00,,,0.34,55.000000,,2014-12-18 17:33:00,
2014-12-18 09:43:00,43.0,38.0,-100.00,SE,132,15.0,22.0,83,0.00,,,0.34,55.000000,,2014-12-18 17:43:00,
2014-12-18 09:52:00,43.0,38.0,-100.00,SE,132,15.0,22.0,83,0.00,,,0.34,55.000000,,2014-12-18 17:52:00,
2014-12-18 10:01:00,45.0,40.0,-100.00,SE,132,15.0,23.0,81,0.00,,,0.33,144.000000,,2014-12-18 18:01:00,
2014-12-18 10:22:00,45.0,40.0,-100.00,SE,132,15.0,23.0,81,0.00,,,0.33,144.000000,,2014-12-18 18:22:00,
2014-12-18 10:33:00,45.0,40.0,-100.00,SE,132,15.0,23.0,81,0.00,,,0.33,144.000000,,2014-12-18 18:33:00,
2014-12-18 10:43:00,45.0,40.0,-100.00,SE,132,15.0,23.0,81,0.00,,,0.33,144.000000,,2014-12-18 18:43:00,
2014-12-18 10:53:00,45.0,40.0,-100.00,SE,132,15.0,23.0,81,0.00,,,0.33,144.000000,,2014-12-18 18:53:00,
2014-12-18 11:22:00,46.0,40.0,-100.00,SE,135,13.0,23.0,79,0.00,,,0.31,224.000000,,2014-12-18 19:22:00,